sensor_id;sensor_type;location;lat;lon;timestamp;P1;durP1;ratioP1;P2;durP2;ratioP2
68806;SDS011;55800;54.272;18.558;2023-03-05T00:00:18;7.63;;;4.90;;
68806;SDS011;55800;54.272;18.558;2023-03-05T00:03:08;8.82;;;5.35;;
68806;SDS011;55800;54.272;18.558;2023-03-05T00:05:39;10.48;;;4.95;;
68806;SDS011;55800;54.272;18.558;2023-03-05T00:08:08;12.65;;;6.35;;
68806;SDS011;55800;54.272;18.558;2023-03-05T00:10:38;10.40;;;5.22;;
68806;SDS011;55800;54.272;18.558;2023-03-05T00:13:07;17.08;;;6.85;;
68806;SDS011;55800;54.272;18.558;2023-03-05T00:15:39;7.45;;;4.72;;
68806;SDS011;55800;54.272;18.558;2023-03-05T00:18:08;12.18;;;5.45;;
68806;SDS011;55800;54.272;18.558;2023-03-05T00:20:40;8.60;;;3.97;;
68806;SDS011;55800;54.272;18.558;2023-03-05T00:23:09;12.18;;;5.70;;
68806;SDS011;55800;54.272;18.558;2023-03-05T00:25:39;8.85;;;5.55;;
68806;SDS011;55800;54.272;18.558;2023-03-05T00:28:08;10.52;;;5.65;;
68806;SDS011;55800;54.272;18.558;2023-03-05T00:33:07;10.02;;;4.65;;
68806;SDS011;55800;54.272;18.558;2023-03-05T00:35:42;7.32;;;4.45;;
68806;SDS011;55800;54.272;18.558;2023-03-05T00:38:13;8.98;;;4.50;;
68806;SDS011;55800;54.272;18.558;2023-03-05T00:40:43;8.30;;;4.65;;
68806;SDS011;55800;54.272;18.558;2023-03-05T00:43:12;6.90;;;4.32;;
68806;SDS011;55800;54.272;18.558;2023-03-05T00:45:41;7.75;;;4.28;;
68806;SDS011;55800;54.272;18.558;2023-03-05T00:48:11;10.13;;;5.55;;
68806;SDS011;55800;54.272;18.558;2023-03-05T00:50:42;8.75;;;4.78;;
68806;SDS011;55800;54.272;18.558;2023-03-05T00:53:11;7.53;;;3.70;;
68806;SDS011;55800;54.272;18.558;2023-03-05T00:55:40;4.18;;;3.63;;
68806;SDS011;55800;54.272;18.558;2023-03-05T00:58:10;2.70;;;2.50;;
68806;SDS011;55800;54.272;18.558;2023-03-05T01:00:39;10.20;;;4.20;;
68806;SDS011;55800;54.272;18.558;2023-03-05T01:03:09;12.95;;;3.60;;
68806;SDS011;55800;54.272;18.558;2023-03-05T01:05:38;7.82;;;4.60;;
68806;SDS011;55800;54.272;18.558;2023-03-05T01:08:08;8.90;;;4.40;;
68806;SDS011;55800;54.272;18.558;2023-03-05T01:10:38;3.10;;;2.80;;
68806;SDS011;55800;54.272;18.558;2023-03-05T01:13:08;6.47;;;3.92;;
68806;SDS011;55800;54.272;18.558;2023-03-05T01:15:37;6.97;;;3.88;;
68806;SDS011;55800;54.272;18.558;2023-03-05T01:18:06;4.38;;;2.97;;
68806;SDS011;55800;54.272;18.558;2023-03-05T01:20:36;4.95;;;3.35;;
68806;SDS011;55800;54.272;18.558;2023-03-05T01:23:05;8.10;;;3.30;;
68806;SDS011;55800;54.272;18.558;2023-03-05T01:25:36;6.38;;;3.88;;
68806;SDS011;55800;54.272;18.558;2023-03-05T01:28:05;4.35;;;3.40;;
68806;SDS011;55800;54.272;18.558;2023-03-05T01:30:35;3.67;;;2.55;;
68806;SDS011;55800;54.272;18.558;2023-03-05T01:33:04;5.78;;;4.22;;
68806;SDS011;55800;54.272;18.558;2023-03-05T01:35:34;5.40;;;3.97;;
68806;SDS011;55800;54.272;18.558;2023-03-05T01:38:03;6.25;;;3.53;;
68806;SDS011;55800;54.272;18.558;2023-03-05T01:40:33;6.72;;;4.13;;
68806;SDS011;55800;54.272;18.558;2023-03-05T01:43:07;5.40;;;3.38;;
68806;SDS011;55800;54.272;18.558;2023-03-05T01:49:05;10.90;;;3.97;;
68806;SDS011;55800;54.272;18.558;2023-03-05T01:51:44;5.70;;;3.40;;
68806;SDS011;55800;54.272;18.558;2023-03-05T01:54:24;6.38;;;4.20;;
68806;SDS011;55800;54.272;18.558;2023-03-05T01:57:00;5.30;;;3.72;;
68806;SDS011;55800;54.272;18.558;2023-03-05T01:59:36;7.13;;;3.60;;
68806;SDS011;55800;54.272;18.558;2023-03-05T02:02:09;9.80;;;4.28;;
68806;SDS011;55800;54.272;18.558;2023-03-05T02:04:41;8.80;;;4.00;;
68806;SDS011;55800;54.272;18.558;2023-03-05T02:07:13;6.15;;;4.03;;
68806;SDS011;55800;54.272;18.558;2023-03-05T02:09:44;6.22;;;3.47;;
68806;SDS011;55800;54.272;18.558;2023-03-05T02:12:15;5.43;;;3.55;;
68806;SDS011;55800;54.272;18.558;2023-03-05T02:14:45;3.60;;;3.10;;
68806;SDS011;55800;54.272;18.558;2023-03-05T02:17:25;10.20;;;4.53;;
68806;SDS011;55800;54.272;18.558;2023-03-05T02:19:56;4.95;;;3.15;;
68806;SDS011;55800;54.272;18.558;2023-03-05T02:22:34;7.40;;;3.53;;
68806;SDS011;55800;54.272;18.558;2023-03-05T02:25:11;6.88;;;3.50;;
68806;SDS011;55800;54.272;18.558;2023-03-05T02:27:43;4.73;;;3.53;;
68806;SDS011;55800;54.272;18.558;2023-03-05T02:30:18;4.35;;;3.00;;
68806;SDS011;55800;54.272;18.558;2023-03-05T02:32:48;4.05;;;3.17;;
68806;SDS011;55800;54.272;18.558;2023-03-05T02:35:19;3.20;;;2.83;;
68806;SDS011;55800;54.272;18.558;2023-03-05T02:37:50;5.50;;;2.70;;
68806;SDS011;55800;54.272;18.558;2023-03-05T02:40:19;3.22;;;2.28;;
68806;SDS011;55800;54.272;18.558;2023-03-05T02:42:49;2.78;;;2.22;;
68806;SDS011;55800;54.272;18.558;2023-03-05T02:45:18;5.07;;;3.17;;
68806;SDS011;55800;54.272;18.558;2023-03-05T02:47:48;4.95;;;2.70;;
68806;SDS011;55800;54.272;18.558;2023-03-05T02:50:17;3.70;;;2.90;;
68806;SDS011;55800;54.272;18.558;2023-03-05T02:52:47;4.53;;;3.63;;
68806;SDS011;55800;54.272;18.558;2023-03-05T02:55:18;5.40;;;3.22;;
68806;SDS011;55800;54.272;18.558;2023-03-05T02:57:48;8.30;;;2.75;;
68806;SDS011;55800;54.272;18.558;2023-03-05T03:00:17;3.38;;;3.03;;
68806;SDS011;55800;54.272;18.558;2023-03-05T03:02:47;4.45;;;2.97;;
68806;SDS011;55800;54.272;18.558;2023-03-05T03:05:16;3.00;;;2.78;;
68806;SDS011;55800;54.272;18.558;2023-03-05T03:07:46;3.17;;;2.63;;
68806;SDS011;55800;54.272;18.558;2023-03-05T03:10:15;7.53;;;3.28;;
68806;SDS011;55800;54.272;18.558;2023-03-05T03:12:47;3.63;;;2.90;;
68806;SDS011;55800;54.272;18.558;2023-03-05T03:15:16;7.57;;;3.23;;
68806;SDS011;55800;54.272;18.558;2023-03-05T03:17:45;3.33;;;2.53;;
68806;SDS011;55800;54.272;18.558;2023-03-05T03:20:15;4.75;;;3.15;;
68806;SDS011;55800;54.272;18.558;2023-03-05T03:22:45;9.95;;;3.63;;
68806;SDS011;55800;54.272;18.558;2023-03-05T03:25:16;3.55;;;2.92;;
68806;SDS011;55800;54.272;18.558;2023-03-05T03:27:52;10.98;;;3.97;;
68806;SDS011;55800;54.272;18.558;2023-03-05T03:33:43;6.85;;;3.55;;
68806;SDS011;55800;54.272;18.558;2023-03-05T03:36:13;2.53;;;2.35;;
68806;SDS011;55800;54.272;18.558;2023-03-05T03:38:42;3.20;;;2.90;;
68806;SDS011;55800;54.272;18.558;2023-03-05T03:41:11;5.82;;;3.53;;
68806;SDS011;55800;54.272;18.558;2023-03-05T03:43:42;4.55;;;3.38;;
68806;SDS011;55800;54.272;18.558;2023-03-05T03:46:11;3.45;;;2.40;;
68806;SDS011;55800;54.272;18.558;2023-03-05T03:48:41;4.20;;;2.97;;
68806;SDS011;55800;54.272;18.558;2023-03-05T03:51:10;2.60;;;2.40;;
68806;SDS011;55800;54.272;18.558;2023-03-05T03:53:39;2.30;;;2.20;;
68806;SDS011;55800;54.272;18.558;2023-03-05T03:56:08;2.93;;;2.73;;
68806;SDS011;55800;54.272;18.558;2023-03-05T03:58:38;5.10;;;3.13;;
68806;SDS011;55800;54.272;18.558;2023-03-05T04:01:08;2.47;;;2.30;;
68806;SDS011;55800;54.272;18.558;2023-03-05T04:03:38;4.07;;;2.65;;
68806;SDS011;55800;54.272;18.558;2023-03-05T04:06:07;4.33;;;2.90;;
68806;SDS011;55800;54.272;18.558;2023-03-05T04:08:36;5.45;;;2.92;;
68806;SDS011;55800;54.272;18.558;2023-03-05T04:11:06;3.40;;;2.58;;
68806;SDS011;55800;54.272;18.558;2023-03-05T04:13:36;3.67;;;3.03;;
68806;SDS011;55800;54.272;18.558;2023-03-05T04:16:05;3.80;;;2.72;;
68806;SDS011;55800;54.272;18.558;2023-03-05T04:21:05;7.50;;;3.95;;
68806;SDS011;55800;54.272;18.558;2023-03-05T04:23:35;5.15;;;3.20;;
68806;SDS011;55800;54.272;18.558;2023-03-05T04:26:05;6.15;;;3.45;;
68806;SDS011;55800;54.272;18.558;2023-03-05T04:28:34;4.15;;;3.05;;
68806;SDS011;55800;54.272;18.558;2023-03-05T04:31:04;3.78;;;2.65;;
68806;SDS011;55800;54.272;18.558;2023-03-05T04:33:33;3.28;;;2.97;;
68806;SDS011;55800;54.272;18.558;2023-03-05T04:36:04;4.55;;;3.13;;
68806;SDS011;55800;54.272;18.558;2023-03-05T04:38:34;6.50;;;2.80;;
68806;SDS011;55800;54.272;18.558;2023-03-05T04:41:04;3.38;;;2.85;;
68806;SDS011;55800;54.272;18.558;2023-03-05T04:43:33;3.03;;;2.33;;
68806;SDS011;55800;54.272;18.558;2023-03-05T04:46:02;7.80;;;3.38;;
68806;SDS011;55800;54.272;18.558;2023-03-05T04:48:32;4.78;;;2.60;;
68806;SDS011;55800;54.272;18.558;2023-03-05T04:51:01;6.17;;;2.83;;
68806;SDS011;55800;54.272;18.558;2023-03-05T04:53:32;6.35;;;3.20;;
68806;SDS011;55800;54.272;18.558;2023-03-05T04:56:01;8.95;;;3.00;;
68806;SDS011;55800;54.272;18.558;2023-03-05T04:58:31;6.90;;;3.15;;
68806;SDS011;55800;54.272;18.558;2023-03-05T05:01:00;13.27;;;3.53;;
68806;SDS011;55800;54.272;18.558;2023-03-05T05:03:30;9.70;;;3.35;;
68806;SDS011;55800;54.272;18.558;2023-03-05T05:08:31;4.82;;;3.30;;
68806;SDS011;55800;54.272;18.558;2023-03-05T05:11:01;6.32;;;3.42;;
68806;SDS011;55800;54.272;18.558;2023-03-05T05:13:32;3.65;;;3.33;;
68806;SDS011;55800;54.272;18.558;2023-03-05T05:16:04;5.78;;;3.97;;
68806;SDS011;55800;54.272;18.558;2023-03-05T05:18:34;5.43;;;3.53;;
68806;SDS011;55800;54.272;18.558;2023-03-05T05:21:06;5.53;;;3.45;;
68806;SDS011;55800;54.272;18.558;2023-03-05T05:23:37;3.60;;;3.30;;
68806;SDS011;55800;54.272;18.558;2023-03-05T05:26:07;4.53;;;2.90;;
68806;SDS011;55800;54.272;18.558;2023-03-05T05:28:41;4.30;;;3.40;;
68806;SDS011;55800;54.272;18.558;2023-03-05T05:31:11;5.77;;;3.23;;
68806;SDS011;55800;54.272;18.558;2023-03-05T05:33:42;8.20;;;3.37;;
68806;SDS011;55800;54.272;18.558;2023-03-05T05:36:15;6.25;;;3.63;;
68806;SDS011;55800;54.272;18.558;2023-03-05T05:38:49;5.10;;;3.08;;
68806;SDS011;55800;54.272;18.558;2023-03-05T05:41:19;6.00;;;2.33;;
68806;SDS011;55800;54.272;18.558;2023-03-05T05:43:48;5.90;;;3.17;;
68806;SDS011;55800;54.272;18.558;2023-03-05T05:46:18;4.22;;;2.80;;
68806;SDS011;55800;54.272;18.558;2023-03-05T05:48:49;3.83;;;3.10;;
68806;SDS011;55800;54.272;18.558;2023-03-05T05:51:19;5.83;;;2.90;;
68806;SDS011;55800;54.272;18.558;2023-03-05T05:53:51;5.40;;;3.10;;
68806;SDS011;55800;54.272;18.558;2023-03-05T05:56:20;6.97;;;3.40;;
68806;SDS011;55800;54.272;18.558;2023-03-05T05:58:50;6.53;;;4.10;;
68806;SDS011;55800;54.272;18.558;2023-03-05T06:01:20;3.88;;;3.50;;
68806;SDS011;55800;54.272;18.558;2023-03-05T06:03:51;6.03;;;3.20;;
68806;SDS011;55800;54.272;18.558;2023-03-05T06:06:21;4.28;;;2.83;;
68806;SDS011;55800;54.272;18.558;2023-03-05T06:08:53;5.40;;;2.90;;
68806;SDS011;55800;54.272;18.558;2023-03-05T06:11:23;4.00;;;2.97;;
68806;SDS011;55800;54.272;18.558;2023-03-05T06:13:52;6.50;;;4.88;;
68806;SDS011;55800;54.272;18.558;2023-03-05T06:16:22;6.45;;;3.10;;
68806;SDS011;55800;54.272;18.558;2023-03-05T06:18:52;7.03;;;3.17;;
68806;SDS011;55800;54.272;18.558;2023-03-05T06:21:22;7.57;;;2.90;;
68806;SDS011;55800;54.272;18.558;2023-03-05T06:23:51;4.75;;;3.08;;
68806;SDS011;55800;54.272;18.558;2023-03-05T06:26:24;5.20;;;3.07;;
68806;SDS011;55800;54.272;18.558;2023-03-05T06:28:54;4.70;;;2.78;;
68806;SDS011;55800;54.272;18.558;2023-03-05T06:31:25;1.90;;;1.80;;
68806;SDS011;55800;54.272;18.558;2023-03-05T06:33:56;5.53;;;2.93;;
68806;SDS011;55800;54.272;18.558;2023-03-05T06:36:27;5.23;;;2.70;;
68806;SDS011;55800;54.272;18.558;2023-03-05T06:38:59;2.60;;;2.40;;
68806;SDS011;55800;54.272;18.558;2023-03-05T06:41:29;3.20;;;2.97;;
68806;SDS011;55800;54.272;18.558;2023-03-05T06:44:00;2.83;;;2.60;;
68806;SDS011;55800;54.272;18.558;2023-03-05T06:46:30;4.28;;;2.67;;
68806;SDS011;55800;54.272;18.558;2023-03-05T06:49:03;3.63;;;2.50;;
68806;SDS011;55800;54.272;18.558;2023-03-05T06:51:34;2.15;;;1.98;;
68806;SDS011;55800;54.272;18.558;2023-03-05T06:54:07;4.50;;;2.80;;
68806;SDS011;55800;54.272;18.558;2023-03-05T06:56:38;2.75;;;2.55;;
68806;SDS011;55800;54.272;18.558;2023-03-05T06:59:09;3.33;;;3.00;;
68806;SDS011;55800;54.272;18.558;2023-03-05T07:01:40;2.65;;;2.45;;
68806;SDS011;55800;54.272;18.558;2023-03-05T07:04:10;5.35;;;2.88;;
68806;SDS011;55800;54.272;18.558;2023-03-05T07:06:41;4.45;;;2.72;;
68806;SDS011;55800;54.272;18.558;2023-03-05T07:09:13;6.80;;;2.83;;
68806;SDS011;55800;54.272;18.558;2023-03-05T07:11:42;3.47;;;2.30;;
68806;SDS011;55800;54.272;18.558;2023-03-05T07:14:11;2.50;;;2.33;;
68806;SDS011;55800;54.272;18.558;2023-03-05T07:16:41;2.75;;;2.55;;
68806;SDS011;55800;54.272;18.558;2023-03-05T07:19:10;2.13;;;2.03;;
68806;SDS011;55800;54.272;18.558;2023-03-05T07:21:39;3.00;;;2.73;;
68806;SDS011;55800;54.272;18.558;2023-03-05T07:24:10;3.97;;;2.22;;
68806;SDS011;55800;54.272;18.558;2023-03-05T07:26:41;2.58;;;2.38;;
68806;SDS011;55800;54.272;18.558;2023-03-05T07:29:14;2.63;;;2.30;;
68806;SDS011;55800;54.272;18.558;2023-03-05T07:31:43;3.42;;;2.63;;
68806;SDS011;55800;54.272;18.558;2023-03-05T07:34:13;4.40;;;2.63;;
68806;SDS011;55800;54.272;18.558;2023-03-05T07:36:42;5.43;;;2.33;;
68806;SDS011;55800;54.272;18.558;2023-03-05T07:39:14;2.28;;;2.17;;
68806;SDS011;55800;54.272;18.558;2023-03-05T07:41:45;4.95;;;2.35;;
68806;SDS011;55800;54.272;18.558;2023-03-05T07:44:16;4.38;;;2.75;;
68806;SDS011;55800;54.272;18.558;2023-03-05T07:46:46;8.10;;;2.90;;
68806;SDS011;55800;54.272;18.558;2023-03-05T07:49:17;4.82;;;2.83;;
68806;SDS011;55800;54.272;18.558;2023-03-05T07:51:46;6.15;;;2.65;;
68806;SDS011;55800;54.272;18.558;2023-03-05T07:54:17;3.38;;;3.00;;
68806;SDS011;55800;54.272;18.558;2023-03-05T07:56:46;4.47;;;2.33;;
68806;SDS011;55800;54.272;18.558;2023-03-05T07:59:16;2.72;;;2.53;;
68806;SDS011;55800;54.272;18.558;2023-03-05T08:01:45;2.53;;;2.33;;
68806;SDS011;55800;54.272;18.558;2023-03-05T08:04:14;3.42;;;2.38;;
68806;SDS011;55800;54.272;18.558;2023-03-05T08:06:44;6.78;;;2.53;;
68806;SDS011;55800;54.272;18.558;2023-03-05T08:11:44;3.20;;;2.70;;
68806;SDS011;55800;54.272;18.558;2023-03-05T08:14:14;2.67;;;2.28;;
68806;SDS011;55800;54.272;18.558;2023-03-05T08:16:43;2.50;;;2.30;;
68806;SDS011;55800;54.272;18.558;2023-03-05T08:19:16;2.10;;;2.00;;
68806;SDS011;55800;54.272;18.558;2023-03-05T08:21:47;4.05;;;2.78;;
68806;SDS011;55800;54.272;18.558;2023-03-05T08:24:16;4.15;;;2.92;;
68806;SDS011;55800;54.272;18.558;2023-03-05T08:26:47;5.93;;;3.00;;
68806;SDS011;55800;54.272;18.558;2023-03-05T08:29:16;4.25;;;2.83;;
68806;SDS011;55800;54.272;18.558;2023-03-05T08:31:46;3.05;;;2.53;;
68806;SDS011;55800;54.272;18.558;2023-03-05T08:34:16;2.42;;;2.22;;
68806;SDS011;55800;54.272;18.558;2023-03-05T08:36:45;9.35;;;2.80;;
68806;SDS011;55800;54.272;18.558;2023-03-05T08:39:15;4.68;;;2.50;;
68806;SDS011;55800;54.272;18.558;2023-03-05T08:41:46;3.28;;;2.63;;
68806;SDS011;55800;54.272;18.558;2023-03-05T08:44:16;5.68;;;2.28;;
68806;SDS011;55800;54.272;18.558;2023-03-05T08:46:45;2.60;;;2.07;;
68806;SDS011;55800;54.272;18.558;2023-03-05T08:49:14;8.95;;;2.60;;
68806;SDS011;55800;54.272;18.558;2023-03-05T08:51:44;11.60;;;2.60;;
68806;SDS011;55800;54.272;18.558;2023-03-05T08:54:13;2.28;;;2.00;;
68806;SDS011;55800;54.272;18.558;2023-03-05T08:56:42;2.42;;;2.20;;
68806;SDS011;55800;54.272;18.558;2023-03-05T08:59:13;3.15;;;2.70;;
68806;SDS011;55800;54.272;18.558;2023-03-05T09:01:42;1.80;;;1.70;;
68806;SDS011;55800;54.272;18.558;2023-03-05T09:04:12;1.90;;;1.75;;
68806;SDS011;55800;54.272;18.558;2023-03-05T09:09:11;2.67;;;1.70;;
68806;SDS011;55800;54.272;18.558;2023-03-05T09:11:40;3.15;;;2.38;;
68806;SDS011;55800;54.272;18.558;2023-03-05T09:14:10;4.38;;;2.28;;
68806;SDS011;55800;54.272;18.558;2023-03-05T09:16:41;1.90;;;1.80;;
68806;SDS011;55800;54.272;18.558;2023-03-05T09:19:10;3.35;;;2.13;;
68806;SDS011;55800;54.272;18.558;2023-03-05T09:21:41;4.88;;;4.50;;
68806;SDS011;55800;54.272;18.558;2023-03-05T09:24:10;1.80;;;1.70;;
68806;SDS011;55800;54.272;18.558;2023-03-05T09:26:40;4.05;;;1.83;;
68806;SDS011;55800;54.272;18.558;2023-03-05T09:29:15;1.77;;;1.67;;
68806;SDS011;55800;54.272;18.558;2023-03-05T09:31:46;1.70;;;1.60;;
68806;SDS011;55800;54.272;18.558;2023-03-05T09:34:18;2.88;;;2.05;;
68806;SDS011;55800;54.272;18.558;2023-03-05T09:36:48;2.38;;;1.35;;
68806;SDS011;55800;54.272;18.558;2023-03-05T09:39:17;1.92;;;1.73;;
68806;SDS011;55800;54.272;18.558;2023-03-05T09:41:55;2.03;;;1.88;;
68806;SDS011;55800;54.272;18.558;2023-03-05T09:44:43;1.95;;;1.80;;
68806;SDS011;55800;54.272;18.558;2023-03-05T09:47:22;6.32;;;1.95;;
68806;SDS011;55800;54.272;18.558;2023-03-05T09:50:09;2.25;;;2.05;;
68806;SDS011;55800;54.272;18.558;2023-03-05T09:52:50;2.92;;;2.40;;
68806;SDS011;55800;54.272;18.558;2023-03-05T09:55:26;1.90;;;1.80;;
68806;SDS011;55800;54.272;18.558;2023-03-05T09:58:02;2.13;;;2.03;;
68806;SDS011;55800;54.272;18.558;2023-03-05T10:00:37;3.75;;;1.60;;
68806;SDS011;55800;54.272;18.558;2023-03-05T10:03:15;2.08;;;1.92;;
68806;SDS011;55800;54.272;18.558;2023-03-05T10:05:53;2.35;;;1.70;;
68806;SDS011;55800;54.272;18.558;2023-03-05T10:08:31;2.55;;;1.55;;
68806;SDS011;55800;54.272;18.558;2023-03-05T10:11:11;1.88;;;1.48;;
68806;SDS011;55800;54.272;18.558;2023-03-05T10:14:05;2.28;;;2.08;;
68806;SDS011;55800;54.272;18.558;2023-03-05T10:19:57;1.90;;;1.80;;
68806;SDS011;55800;54.272;18.558;2023-03-05T10:22:50;2.92;;;1.90;;
68806;SDS011;55800;54.272;18.558;2023-03-05T10:25:37;1.90;;;1.80;;
68806;SDS011;55800;54.272;18.558;2023-03-05T10:28:33;2.45;;;2.10;;
68806;SDS011;55800;54.272;18.558;2023-03-05T10:31:14;1.90;;;1.80;;
68806;SDS011;55800;54.272;18.558;2023-03-05T10:34:09;2.10;;;1.90;;
68806;SDS011;55800;54.272;18.558;2023-03-05T10:37:01;3.20;;;2.10;;
68806;SDS011;55800;54.272;18.558;2023-03-05T10:39:58;1.88;;;1.73;;
68806;SDS011;55800;54.272;18.558;2023-03-05T10:42:44;2.00;;;1.90;;
68806;SDS011;55800;54.272;18.558;2023-03-05T10:45:22;2.47;;;2.15;;
68806;SDS011;55800;54.272;18.558;2023-03-05T10:47:56;1.85;;;1.75;;
68806;SDS011;55800;54.272;18.558;2023-03-05T10:50:34;4.55;;;2.28;;
68806;SDS011;55800;54.272;18.558;2023-03-05T10:53:09;4.45;;;2.50;;
68806;SDS011;55800;54.272;18.558;2023-03-05T10:55:44;4.57;;;2.42;;
68806;SDS011;55800;54.272;18.558;2023-03-05T10:58:15;3.97;;;2.10;;
68806;SDS011;55800;54.272;18.558;2023-03-05T11:01:01;2.25;;;1.90;;
68806;SDS011;55800;54.272;18.558;2023-03-05T11:03:46;2.28;;;2.13;;
68806;SDS011;55800;54.272;18.558;2023-03-05T11:06:29;2.35;;;2.15;;
68806;SDS011;55800;54.272;18.558;2023-03-05T11:12:04;3.03;;;1.83;;
68806;SDS011;55800;54.272;18.558;2023-03-05T11:14:42;4.30;;;2.35;;
68806;SDS011;55800;54.272;18.558;2023-03-05T11:17:24;1.98;;;1.52;;
68806;SDS011;55800;54.272;18.558;2023-03-05T11:19:56;1.52;;;1.42;;
68806;SDS011;55800;54.272;18.558;2023-03-05T11:25:53;1.80;;;1.70;;
68806;SDS011;55800;54.272;18.558;2023-03-05T11:28:28;1.70;;;1.60;;
68806;SDS011;55800;54.272;18.558;2023-03-05T11:31:01;2.78;;;1.70;;
68806;SDS011;55800;54.272;18.558;2023-03-05T11:33:36;4.07;;;1.77;;
68806;SDS011;55800;54.272;18.558;2023-03-05T11:36:09;1.77;;;1.67;;
68806;SDS011;55800;54.272;18.558;2023-03-05T11:38:53;2.33;;;2.13;;
68806;SDS011;55800;54.272;18.558;2023-03-05T11:41:27;2.33;;;2.05;;
68806;SDS011;55800;54.272;18.558;2023-03-05T11:44:00;5.43;;;2.13;;
68806;SDS011;55800;54.272;18.558;2023-03-05T11:46:34;1.52;;;1.42;;
68806;SDS011;55800;54.272;18.558;2023-03-05T11:49:10;2.28;;;2.00;;
68806;SDS011;55800;54.272;18.558;2023-03-05T11:51:44;4.68;;;2.72;;
68806;SDS011;55800;54.272;18.558;2023-03-05T11:54:22;8.15;;;2.45;;
68806;SDS011;55800;54.272;18.558;2023-03-05T11:56:55;1.60;;;1.50;;
68806;SDS011;55800;54.272;18.558;2023-03-05T11:59:28;2.05;;;1.90;;
68806;SDS011;55800;54.272;18.558;2023-03-05T12:02:01;2.90;;;1.70;;
68806;SDS011;55800;54.272;18.558;2023-03-05T12:04:45;1.92;;;1.80;;
68806;SDS011;55800;54.272;18.558;2023-03-05T12:07:16;1.70;;;1.60;;
68806;SDS011;55800;54.272;18.558;2023-03-05T12:09:51;2.50;;;2.30;;
68806;SDS011;55800;54.272;18.558;2023-03-05T12:12:27;3.22;;;1.55;;
68806;SDS011;55800;54.272;18.558;2023-03-05T12:15:19;2.45;;;1.95;;
68806;SDS011;55800;54.272;18.558;2023-03-05T12:18:04;2.17;;;1.85;;
68806;SDS011;55800;54.272;18.558;2023-03-05T12:20:43;1.60;;;1.50;;
68806;SDS011;55800;54.272;18.558;2023-03-05T12:23:18;1.88;;;1.70;;
68806;SDS011;55800;54.272;18.558;2023-03-05T12:25:52;2.58;;;1.83;;
68806;SDS011;55800;54.272;18.558;2023-03-05T12:31:25;3.10;;;2.00;;
68806;SDS011;55800;54.272;18.558;2023-03-05T12:37:13;4.03;;;2.20;;
68806;SDS011;55800;54.272;18.558;2023-03-05T12:40:21;2.17;;;1.92;;
68806;SDS011;55800;54.272;18.558;2023-03-05T12:42:54;2.72;;;2.35;;
68806;SDS011;55800;54.272;18.558;2023-03-05T12:51:26;2.03;;;1.83;;
68806;SDS011;55800;54.272;18.558;2023-03-05T12:56:56;2.17;;;1.77;;
68806;SDS011;55800;54.272;18.558;2023-03-05T12:59:31;3.08;;;2.88;;
68806;SDS011;55800;54.272;18.558;2023-03-05T13:02:14;2.80;;;1.92;;
68806;SDS011;55800;54.272;18.558;2023-03-05T13:04:55;4.65;;;2.40;;
68806;SDS011;55800;54.272;18.558;2023-03-05T13:07:28;3.13;;;1.88;;
68806;SDS011;55800;54.272;18.558;2023-03-05T13:10:01;5.35;;;1.98;;
68806;SDS011;55800;54.272;18.558;2023-03-05T13:12:47;3.17;;;2.22;;
68806;SDS011;55800;54.272;18.558;2023-03-05T13:15:22;3.00;;;2.33;;
68806;SDS011;55800;54.272;18.558;2023-03-05T13:17:54;2.03;;;1.95;;
68806;SDS011;55800;54.272;18.558;2023-03-05T13:20:29;2.25;;;2.13;;
68806;SDS011;55800;54.272;18.558;2023-03-05T13:23:04;2.42;;;2.22;;
68806;SDS011;55800;54.272;18.558;2023-03-05T13:25:57;2.70;;;2.28;;
68806;SDS011;55800;54.272;18.558;2023-03-05T13:28:28;3.03;;;2.10;;
68806;SDS011;55800;54.272;18.558;2023-03-05T13:31:01;2.55;;;2.35;;
68806;SDS011;55800;54.272;18.558;2023-03-05T13:33:38;3.30;;;2.38;;
68806;SDS011;55800;54.272;18.558;2023-03-05T13:36:13;3.05;;;1.67;;
68806;SDS011;55800;54.272;18.558;2023-03-05T13:38:44;3.58;;;2.72;;
68806;SDS011;55800;54.272;18.558;2023-03-05T13:41:18;6.72;;;2.50;;
68806;SDS011;55800;54.272;18.558;2023-03-05T13:43:50;2.30;;;1.73;;
68806;SDS011;55800;54.272;18.558;2023-03-05T13:46:23;3.88;;;2.17;;
68806;SDS011;55800;54.272;18.558;2023-03-05T13:48:54;4.45;;;1.88;;
68806;SDS011;55800;54.272;18.558;2023-03-05T13:51:39;1.85;;;1.73;;
68806;SDS011;55800;54.272;18.558;2023-03-05T13:54:10;3.72;;;2.45;;
68806;SDS011;55800;54.272;18.558;2023-03-05T13:56:50;3.00;;;1.95;;
68806;SDS011;55800;54.272;18.558;2023-03-05T13:59:24;4.18;;;2.25;;
68806;SDS011;55800;54.272;18.558;2023-03-05T14:01:58;2.85;;;2.00;;
68806;SDS011;55800;54.272;18.558;2023-03-05T14:04:28;2.15;;;1.70;;
68806;SDS011;55800;54.272;18.558;2023-03-05T14:07:03;1.40;;;1.20;;
68806;SDS011;55800;54.272;18.558;2023-03-05T14:09:42;5.03;;;2.55;;
68806;SDS011;55800;54.272;18.558;2023-03-05T14:12:22;2.35;;;2.10;;
68806;SDS011;55800;54.272;18.558;2023-03-05T14:14:56;3.65;;;1.60;;
68806;SDS011;55800;54.272;18.558;2023-03-05T14:17:39;4.03;;;1.60;;
68806;SDS011;55800;54.272;18.558;2023-03-05T14:20:23;2.97;;;1.30;;
68806;SDS011;55800;54.272;18.558;2023-03-05T14:22:56;2.25;;;1.00;;
68806;SDS011;55800;54.272;18.558;2023-03-05T14:25:28;3.72;;;1.48;;
68806;SDS011;55800;54.272;18.558;2023-03-05T14:28:04;1.85;;;1.73;;
68806;SDS011;55800;54.272;18.558;2023-03-05T14:30:49;2.22;;;1.60;;
68806;SDS011;55800;54.272;18.558;2023-03-05T14:33:26;1.65;;;1.20;;
68806;SDS011;55800;54.272;18.558;2023-03-05T14:35:57;2.97;;;1.40;;
68806;SDS011;55800;54.272;18.558;2023-03-05T14:38:30;1.70;;;1.42;;
68806;SDS011;55800;54.272;18.558;2023-03-05T14:43:46;2.35;;;1.50;;
68806;SDS011;55800;54.272;18.558;2023-03-05T14:46:15;3.63;;;1.92;;
68806;SDS011;55800;54.272;18.558;2023-03-05T14:48:46;6.63;;;2.05;;
68806;SDS011;55800;54.272;18.558;2023-03-05T14:51:15;0.80;;;0.80;;
68806;SDS011;55800;54.272;18.558;2023-03-05T14:53:46;6.53;;;1.00;;
68806;SDS011;55800;54.272;18.558;2023-03-05T14:56:21;5.95;;;1.45;;
68806;SDS011;55800;54.272;18.558;2023-03-05T14:58:51;3.08;;;1.40;;
68806;SDS011;55800;54.272;18.558;2023-03-05T15:01:24;1.92;;;1.45;;
68806;SDS011;55800;54.272;18.558;2023-03-05T15:03:55;1.25;;;0.95;;
68806;SDS011;55800;54.272;18.558;2023-03-05T15:06:28;3.08;;;1.75;;
68806;SDS011;55800;54.272;18.558;2023-03-05T15:09:00;3.00;;;1.13;;
68806;SDS011;55800;54.272;18.558;2023-03-05T15:11:30;2.80;;;1.27;;
68806;SDS011;55800;54.272;18.558;2023-03-05T15:16:31;2.35;;;1.10;;
68806;SDS011;55800;54.272;18.558;2023-03-05T15:19:02;1.20;;;1.08;;
68806;SDS011;55800;54.272;18.558;2023-03-05T15:21:31;1.33;;;0.93;;
68806;SDS011;55800;54.272;18.558;2023-03-05T15:24:03;1.02;;;0.98;;
68806;SDS011;55800;54.272;18.558;2023-03-05T15:26:32;4.25;;;1.30;;
68806;SDS011;55800;54.272;18.558;2023-03-05T15:29:03;4.72;;;1.40;;
68806;SDS011;55800;54.272;18.558;2023-03-05T15:31:32;2.28;;;1.13;;
68806;SDS011;55800;54.272;18.558;2023-03-05T15:34:06;4.95;;;1.30;;
68806;SDS011;55800;54.272;18.558;2023-03-05T15:36:35;1.35;;;1.20;;
68806;SDS011;55800;54.272;18.558;2023-03-05T15:41:34;2.65;;;1.42;;
68806;SDS011;55800;54.272;18.558;2023-03-05T15:44:04;2.13;;;1.25;;
68806;SDS011;55800;54.272;18.558;2023-03-05T15:46:33;2.30;;;1.40;;
68806;SDS011;55800;54.272;18.558;2023-03-05T15:49:03;4.22;;;1.52;;
68806;SDS011;55800;54.272;18.558;2023-03-05T15:51:33;1.40;;;1.30;;
68806;SDS011;55800;54.272;18.558;2023-03-05T15:54:03;3.45;;;1.95;;
68806;SDS011;55800;54.272;18.558;2023-03-05T15:56:33;2.35;;;1.90;;